Tropical Cyclones
[Index]
Main Index Home Page Stock Weather Photos Extreme Storms Discussion Storm News and Storm Chasing Reports Tropical Cyclones / Hurricanes / Typhoons Weather Data and Links Wild Fires / Bushfires Weather Observation Techniques Weather Picture Catalogue Tornado Pictures and Reports Stock Video Footage and DVDs for sale
Season 1985-1986 Tropical Cyclone HECTOR Track Map
Season 1985-1986 Summaries: [BoM-AU] [JTWC-AU] [JTWC-SIO] [JTWC-SPAC] [JTWC-SH]
<<- Previous TC | BoM 1985-1986 Season | Next TC ->>

click for intensity scale information  Lat/long Grid: Show Hide

 Date Labels: Show Hide

Bureau of Meteorology Tropical Cyclone Data

Name: HECTOR
Number: 683 / 198586_04

17 Jan 1986 02:00 UTC to 24 Jan 1986 06:00 UTC

    date/time    lat    long    hPa   cat  kts
1986-01-17 02   11.8   130.6    998                     
1986-01-17 05   12.2   130.0    998                     
1986-01-17 11   12.7   129.8    996                     
1986-01-17 17   12.9   129.6    989    1                
1986-01-17 23   12.6   129.0    986    1                
1986-01-18 05   12.7   128.7    986    1                
1986-01-18 11   13.0   128.7    984    2                
1986-01-18 17   13.2   128.8    984    2                
1986-01-18 23   13.3   128.8    985    2                
1986-01-19 05   13.4   128.9    977    2                
1986-01-19 11   14.1   128.4    976    2                
1986-01-19 17   14.7   128.2    973    2                
1986-01-20 00   15.4   127.8    978    2    51          
1986-01-20 03   15.4   127.4    990    1    47          
1986-01-20 06   16.0   127.0    992    1    43          
1986-01-20 09   16.3   126.7    992    1    43          
1986-01-20 12   16.5   126.4    992    1    43          
1986-01-20 16   16.8   125.9    992    1    43          
1986-01-20 18   16.9   125.6    992    1    43          
1986-01-20 21   17.0   125.3    992    1    43          
1986-01-21 00   17.1   125.0    991    1    45          
1986-01-21 03   17.2   124.8    991    1    45          
1986-01-21 06   17.2   124.6    991    1    45          
1986-01-21 09   17.2   124.5    991    1    45          
1986-01-21 12   17.2   124.4    991    1    45          
1986-01-21 16   17.2   124.3    991    1    45          
1986-01-21 18   17.2   124.2    991    1    45          
1986-01-21 21   17.2   124.0    991    1    45          
1986-01-22 00   17.1   123.9    991    1    45          
1986-01-22 03   17.1   123.8    990    1    47          
1986-01-22 06   17.1   123.7    988    1    51          
1986-01-22 09   17.1   123.6    988    1    51          
1986-01-22 12   17.0   123.5    987    1    52          
1986-01-22 16   16.9   123.4    987    1    52          
1986-01-22 18   16.9   123.3    988    1    51          
1986-01-22 21   17.0   123.3    989    1    47          
1986-01-23 00   17.1   123.4    990    1    47          
1986-01-23 03   17.2   123.5    991    1    45          
1986-01-23 06   17.3   123.6    992    1    43          
1986-01-23 09   17.5   123.8    992    1    43          
1986-01-23 12   17.8   124.1    993    1    43          
1986-01-23 16   17.9   124.5    994    1    39          
1986-01-23 18   18.2   124.8    994    1    39          
1986-01-23 21   18.6   125.1    994    1    39          
1986-01-24 00   19.0   125.2    994    1    39          
1986-01-24 03   19.6   125.5    995    1    37          
1986-01-24 06   20.0   126.0    995    1    37          
Winds are 10-min average.

Tropical cyclone tracks developed by Michael Bath using data from the Bureau of Meteorology and Google Maps.


[Australian Severe Weather index] [Copyright Notice] [Email Contacts] [Search This Site] [Privacy Policy]
Document: tropical_cyclone_hector.htm Updated: 30 May 2013